Météo aéronautique

 

LFSI - St. Dizier/Robin, France
Distance from station: SO 26km
Mise à jour: 07/12/2019 18:30
couvert
couvert
 Wind from S
Vent: S 9 km/h
Température: 9°C
Wind Chill: 7°C
Point de rosée: 8°C
Humidité: 94%
Baromètre: 1019 hPa
Clouds: couvert
Visibility: 10 km
Cloud details: couvert 1463 m
2019/12/07 17:30 LFSI 071730Z AUTO 19005KT 9999 OVC048 09/08 Q1019
LFSO - Nancy/Ochey (faf, France
Distance from station: ESE 62km
Mise à jour: 07/12/2019 18:30
couvert
couvert
 Wind from SO
Vent: SO 13 km/h
Température: 8°C
Wind Chill: 6°C
Point de rosée: 6°C
Humidité: 87%
Baromètre: 1019 hPa
Clouds: couvert
Visibility: 10 km
Cloud details: nuageux 366 m
couvert 1433 m
2019/12/07 17:30 LFSO 071730Z AUTO 22007KT 9999 BKN012 OVC047 08/06 Q1019
LFOK - Chalons/Vatry Fa, France
Distance from station: O 73km
Mise à jour: 07/12/2019 18:30
couvert
couvert
 Wind from SSO
Vent: SSO 13 km/h
Température: 8°C
Wind Chill: 6°C
Point de rosée: 8°C
Humidité: 100%
Baromètre: 1019 hPa
Clouds: couvert
Visibility: 10 km
Cloud details: Few Clouds 427 m
couvert 1341 m
2019/12/07 17:30 LFOK 071730Z AUTO 21007KT 9999 FEW014 OVC044 08/08 Q1019 BECMG BKN008 BKN020
 
LFSN - Nancy/Essey, France
Distance from station: E 77km
Mise à jour: 07/12/2019 18:30
clair
clair
 Wind from SO
Vent: SO 7 km/h
Température: 9°C
Wind Chill: 8°C
Point de rosée: 6°C
Humidité: 82%
Baromètre: 1019 hPa
Résumé: clair
Visibility: greater than 10 km
2019/12/07 17:30 LFSN 071730Z AUTO 23004KT CAVOK 09/06 Q1019
LFSG - Epinal/Mirecourt, France
Distance from station: SE 81km
Mise à jour: 07/12/2019 18:30
nuageux
nuageux
 Wind from SSO
Vent: SSO 15 km/h
Température: 8°C
Wind Chill: 5°C
Point de rosée: 7°C
Humidité: 93%
Baromètre: 1020 hPa
Clouds: nuageux
Visibility: 10 km
Cloud details: Few Clouds 457 m
partiellement nuageux 610 m
nuageux 1006 m
2019/12/07 17:30 LFSG 071730Z AUTO 21008KT 9999 FEW015 SCT020 BKN033 08/07 Q1020
LFJL - Metz-Nancy-Lorra, France
Distance from station: ENE 82km
Mise à jour: 07/12/2019 18:30
couvert
couvert
 Wind from SO
Vent: SO 19 km/h
Température: 8°C
Wind Chill: 4°C
Point de rosée: 7°C
Humidité: 93%
Baromètre: 1019 hPa
Clouds: couvert
Visibility: 10 km
Cloud details: couvert 1372 m
2019/12/07 17:30 LFJL 071730Z AUTO 23010KT 9999 OVC045 08/07 Q1019 TEMPO 1500 BR OVC003
 
LFQA - Reims/Prunay, France
Distance from station: ONO 89km
Mise à jour: 07/12/2019 18:30
couvert
couvert
 Wind from SSO
Vent: SSO 11 km/h
Température: 10°C
Wind Chill: 8°C
Point de rosée: 7°C
Humidité: 82%
Baromètre: 1018 hPa
Clouds: couvert
Visibility: 10 km
Cloud details: couvert 1158 m
2019/12/07 17:30 LFQA 071730Z AUTO 20006KT 9999 OVC038 10/07 Q1018
LFQB - Troyes/Barberey, France
Distance from station: OSO 99km
Mise à jour: 07/12/2019 18:00
couvert
couvert
 Wind from SSO
Vent: SSO 11 km/h
Température: 9°C
Wind Chill: 7°C
Point de rosée: 8°C
Humidité: 94%
Baromètre: 1019 hPa
Clouds: couvert
Visibility: 10 km
Cloud details: couvert 1341 m
2019/12/07 17:00 LFQB 071700Z AUTO 20006KT 9999 OVC044 09/08 Q1019